sensor_id;sensor_type;location;lat;lon;timestamp;temperature;humidity
72591;SHT31;60625;51.212;5.952;2023-01-16T00:00:12;6.43;79.19
72591;SHT31;60625;51.212;5.952;2023-01-16T00:05:13;6.41;79.14
72591;SHT31;60625;51.212;5.952;2023-01-16T00:10:13;6.41;78.21
72591;SHT31;60625;51.212;5.952;2023-01-16T00:15:16;6.42;78.38
72591;SHT31;60625;51.212;5.952;2023-01-16T00:20:17;6.42;78.79
72591;SHT31;60625;51.212;5.952;2023-01-16T00:25:18;6.41;78.92
72591;SHT31;60625;51.212;5.952;2023-01-16T00:30:18;6.41;78.87
72591;SHT31;60625;51.212;5.952;2023-01-16T00:35:19;6.41;78.82
72591;SHT31;60625;51.212;5.952;2023-01-16T00:40:20;6.41;78.81
72591;SHT31;60625;51.212;5.952;2023-01-16T00:45:21;6.42;78.33
72591;SHT31;60625;51.212;5.952;2023-01-16T00:50:22;6.43;77.86
72591;SHT31;60625;51.212;5.952;2023-01-16T00:55:23;6.44;78.01
72591;SHT31;60625;51.212;5.952;2023-01-16T01:00:24;6.43;78.32
72591;SHT31;60625;51.212;5.952;2023-01-16T01:05:25;6.37;78.26
72591;SHT31;60625;51.212;5.952;2023-01-16T01:10:26;6.30;78.06
72591;SHT31;60625;51.212;5.952;2023-01-16T01:15:26;6.22;78.17
72591;SHT31;60625;51.212;5.952;2023-01-16T01:20:27;6.19;78.37
72591;SHT31;60625;51.212;5.952;2023-01-16T01:25:27;6.15;78.60
72591;SHT31;60625;51.212;5.952;2023-01-16T01:30:28;6.10;78.92
72591;SHT31;60625;51.212;5.952;2023-01-16T01:35:28;6.05;79.17
72591;SHT31;60625;51.212;5.952;2023-01-16T01:40:29;5.98;79.35
72591;SHT31;60625;51.212;5.952;2023-01-16T01:45:30;5.91;79.39
72591;SHT31;60625;51.212;5.952;2023-01-16T01:55:47;5.76;79.77
72591;SHT31;60625;51.212;5.952;2023-01-16T02:00:50;5.70;79.84
72591;SHT31;60625;51.212;5.952;2023-01-16T02:05:55;5.66;79.93
72591;SHT31;60625;51.212;5.952;2023-01-16T02:11:05;5.60;80.07
72591;SHT31;60625;51.212;5.952;2023-01-16T02:16:26;5.54;80.24
72591;SHT31;60625;51.212;5.952;2023-01-16T02:21:50;5.51;80.25
72591;SHT31;60625;51.212;5.952;2023-01-16T02:27:22;5.48;80.33
72591;SHT31;60625;51.212;5.952;2023-01-16T02:38:35;5.42;80.64
72591;SHT31;60625;51.212;5.952;2023-01-16T02:44:03;5.38;80.70
72591;SHT31;60625;51.212;5.952;2023-01-16T02:49:22;5.31;80.79
72591;SHT31;60625;51.212;5.952;2023-01-16T02:54:40;5.27;80.90
72591;SHT31;60625;51.212;5.952;2023-01-16T02:59:49;5.24;81.03
72591;SHT31;60625;51.212;5.952;2023-01-16T03:04:51;5.22;81.19
72591;SHT31;60625;51.212;5.952;2023-01-16T03:10:00;5.19;81.29
72591;SHT31;60625;51.212;5.952;2023-01-16T03:26:02;5.16;81.35
72591;SHT31;60625;51.212;5.952;2023-01-16T03:31:12;5.17;81.28
72591;SHT31;60625;51.212;5.952;2023-01-16T03:36:40;5.15;81.35
72591;SHT31;60625;51.212;5.952;2023-01-16T03:41:51;5.15;81.39
72591;SHT31;60625;51.212;5.952;2023-01-16T03:46:55;5.15;81.40
72591;SHT31;60625;51.212;5.952;2023-01-16T03:51:58;5.14;81.38
72591;SHT31;60625;51.212;5.952;2023-01-16T04:02:35;5.11;81.31
72591;SHT31;60625;51.212;5.952;2023-01-16T04:08:09;5.09;81.36
72591;SHT31;60625;51.212;5.952;2023-01-16T04:13:27;5.08;81.53
72591;SHT31;60625;51.212;5.952;2023-01-16T04:18:35;5.09;81.60
72591;SHT31;60625;51.212;5.952;2023-01-16T04:23:36;5.13;81.42
72591;SHT31;60625;51.212;5.952;2023-01-16T04:28:37;5.15;81.40
72591;SHT31;60625;51.212;5.952;2023-01-16T04:33:37;5.15;81.37
72591;SHT31;60625;51.212;5.952;2023-01-16T04:38:38;5.15;81.22
72591;SHT31;60625;51.212;5.952;2023-01-16T04:43:38;5.15;81.24
72591;SHT31;60625;51.212;5.952;2023-01-16T04:48:39;5.17;80.91
72591;SHT31;60625;51.212;5.952;2023-01-16T04:53:39;5.18;80.82
72591;SHT31;60625;51.212;5.952;2023-01-16T04:58:39;5.21;80.46
72591;SHT31;60625;51.212;5.952;2023-01-16T05:03:40;5.25;80.16
72591;SHT31;60625;51.212;5.952;2023-01-16T05:08:40;5.29;80.02
72591;SHT31;60625;51.212;5.952;2023-01-16T05:13:41;5.33;79.91
72591;SHT31;60625;51.212;5.952;2023-01-16T05:18:41;5.34;79.83
72591;SHT31;60625;51.212;5.952;2023-01-16T05:23:42;5.35;79.40
72591;SHT31;60625;51.212;5.952;2023-01-16T05:28:42;5.37;78.95
72591;SHT31;60625;51.212;5.952;2023-01-16T05:33:44;5.37;79.19
72591;SHT31;60625;51.212;5.952;2023-01-16T05:38:44;5.36;79.02
72591;SHT31;60625;51.212;5.952;2023-01-16T05:43:46;5.37;79.11
72591;SHT31;60625;51.212;5.952;2023-01-16T05:48:46;5.39;78.93
72591;SHT31;60625;51.212;5.952;2023-01-16T05:53:50;5.45;78.82
72591;SHT31;60625;51.212;5.952;2023-01-16T05:58:51;5.50;79.07
72591;SHT31;60625;51.212;5.952;2023-01-16T06:03:53;5.52;79.00
72591;SHT31;60625;51.212;5.952;2023-01-16T06:08:54;5.55;78.92
72591;SHT31;60625;51.212;5.952;2023-01-16T06:13:54;5.59;78.75
72591;SHT31;60625;51.212;5.952;2023-01-16T06:18:56;5.61;78.81
72591;SHT31;60625;51.212;5.952;2023-01-16T06:23:56;5.65;78.89
72591;SHT31;60625;51.212;5.952;2023-01-16T06:28:57;5.68;78.91
72591;SHT31;60625;51.212;5.952;2023-01-16T06:33:57;5.69;78.82
72591;SHT31;60625;51.212;5.952;2023-01-16T06:38:58;5.72;78.60
72591;SHT31;60625;51.212;5.952;2023-01-16T06:43:58;5.75;78.34
72591;SHT31;60625;51.212;5.952;2023-01-16T06:48:59;5.79;78.46
72591;SHT31;60625;51.212;5.952;2023-01-16T06:53:59;5.79;78.90
72591;SHT31;60625;51.212;5.952;2023-01-16T06:59:03;5.76;79.67
72591;SHT31;60625;51.212;5.952;2023-01-16T07:04:04;5.69;80.31
72591;SHT31;60625;51.212;5.952;2023-01-16T07:09:06;5.64;80.89
72591;SHT31;60625;51.212;5.952;2023-01-16T07:14:07;5.61;81.37
72591;SHT31;60625;51.212;5.952;2023-01-16T07:19:27;5.58;82.00
72591;SHT31;60625;51.212;5.952;2023-01-16T07:24:46;5.55;82.46
72591;SHT31;60625;51.212;5.952;2023-01-16T07:29:47;5.54;82.75
72591;SHT31;60625;51.212;5.952;2023-01-16T07:34:48;5.53;83.18
72591;SHT31;60625;51.212;5.952;2023-01-16T07:39:48;5.51;83.29
72591;SHT31;60625;51.212;5.952;2023-01-16T07:44:48;5.51;83.68
72591;SHT31;60625;51.212;5.952;2023-01-16T07:49:49;5.50;83.79
72591;SHT31;60625;51.212;5.952;2023-01-16T07:54:49;5.51;83.75
72591;SHT31;60625;51.212;5.952;2023-01-16T07:59:49;5.53;83.60
72591;SHT31;60625;51.212;5.952;2023-01-16T08:04:50;5.57;83.34
72591;SHT31;60625;51.212;5.952;2023-01-16T08:09:51;5.62;83.06
72591;SHT31;60625;51.212;5.952;2023-01-16T08:14:51;5.67;82.89
72591;SHT31;60625;51.212;5.952;2023-01-16T08:19:51;5.70;82.62
72591;SHT31;60625;51.212;5.952;2023-01-16T08:24:52;5.73;82.22
72591;SHT31;60625;51.212;5.952;2023-01-16T08:29:52;5.78;81.79
72591;SHT31;60625;51.212;5.952;2023-01-16T08:34:53;5.83;81.20
72591;SHT31;60625;51.212;5.952;2023-01-16T08:39:53;5.86;80.96
72591;SHT31;60625;51.212;5.952;2023-01-16T08:44:54;5.90;80.92
72591;SHT31;60625;51.212;5.952;2023-01-16T08:50:14;5.91;80.43
72591;SHT31;60625;51.212;5.952;2023-01-16T08:55:36;5.91;80.67
72591;SHT31;60625;51.212;5.952;2023-01-16T09:00:39;5.90;80.68
72591;SHT31;60625;51.212;5.952;2023-01-16T09:05:39;5.91;80.46
72591;SHT31;60625;51.212;5.952;2023-01-16T09:10:40;5.92;80.40
72591;SHT31;60625;51.212;5.952;2023-01-16T09:16:03;5.94;80.11
72591;SHT31;60625;51.212;5.952;2023-01-16T09:21:05;5.96;79.75
72591;SHT31;60625;51.212;5.952;2023-01-16T09:26:05;6.00;79.46
72591;SHT31;60625;51.212;5.952;2023-01-16T09:31:06;6.04;78.97
72591;SHT31;60625;51.212;5.952;2023-01-16T09:36:07;6.08;78.82
72591;SHT31;60625;51.212;5.952;2023-01-16T09:41:09;6.11;78.42
72591;SHT31;60625;51.212;5.952;2023-01-16T09:46:36;6.14;78.16
72591;SHT31;60625;51.212;5.952;2023-01-16T09:51:49;6.19;77.90
72591;SHT31;60625;51.212;5.952;2023-01-16T09:57:31;6.24;77.68
72591;SHT31;60625;51.212;5.952;2023-01-16T10:02:52;6.28;77.28
72591;SHT31;60625;51.212;5.952;2023-01-16T10:08:04;6.32;77.40
72591;SHT31;60625;51.212;5.952;2023-01-16T10:19:23;6.43;77.25
72591;SHT31;60625;51.212;5.952;2023-01-16T10:24:36;6.49;76.84
72591;SHT31;60625;51.212;5.952;2023-01-16T10:29:51;6.54;76.64
72591;SHT31;60625;51.212;5.952;2023-01-16T10:40:33;6.64;76.13
72591;SHT31;60625;51.212;5.952;2023-01-16T10:45:35;6.67;76.47
72591;SHT31;60625;51.212;5.952;2023-01-16T10:50:56;6.71;75.95
72591;SHT31;60625;51.212;5.952;2023-01-16T10:55:58;6.75;75.47
72591;SHT31;60625;51.212;5.952;2023-01-16T11:01:03;6.82;75.80
72591;SHT31;60625;51.212;5.952;2023-01-16T11:11:15;7.01;75.12
72591;SHT31;60625;51.212;5.952;2023-01-16T11:16:35;7.06;74.96
72591;SHT31;60625;51.212;5.952;2023-01-16T11:21:55;7.08;75.15
72591;SHT31;60625;51.212;5.952;2023-01-16T11:27:08;7.08;74.85
72591;SHT31;60625;51.212;5.952;2023-01-16T11:32:18;7.14;75.01
72591;SHT31;60625;51.212;5.952;2023-01-16T11:37:25;7.24;74.60
72591;SHT31;60625;51.212;5.952;2023-01-16T11:42:29;7.31;74.08
72591;SHT31;60625;51.212;5.952;2023-01-16T11:47:52;7.34;74.32
72591;SHT31;60625;51.212;5.952;2023-01-16T11:52:55;7.34;74.61
72591;SHT31;60625;51.212;5.952;2023-01-16T11:57:57;7.34;74.61
72591;SHT31;60625;51.212;5.952;2023-01-16T12:14:33;7.37;74.49
72591;SHT31;60625;51.212;5.952;2023-01-16T12:42:31;7.43;74.17
72591;SHT31;60625;51.212;5.952;2023-01-16T12:48:10;7.50;73.74
72591;SHT31;60625;51.212;5.952;2023-01-16T12:53:40;7.53;73.57
72591;SHT31;60625;51.212;5.952;2023-01-16T12:58:57;7.51;73.25
72591;SHT31;60625;51.212;5.952;2023-01-16T13:04:15;7.50;73.32
72591;SHT31;60625;51.212;5.952;2023-01-16T13:09:36;7.50;73.26
72591;SHT31;60625;51.212;5.952;2023-01-16T13:15:15;7.52;72.97
72591;SHT31;60625;51.212;5.952;2023-01-16T13:20:23;7.55;72.89
72591;SHT31;60625;51.212;5.952;2023-01-16T13:25:30;7.55;72.96
72591;SHT31;60625;51.212;5.952;2023-01-16T13:30:31;7.49;73.90
72591;SHT31;60625;51.212;5.952;2023-01-16T13:35:34;7.42;74.07
72591;SHT31;60625;51.212;5.952;2023-01-16T13:41:03;7.38;74.64
72591;SHT31;60625;51.212;5.952;2023-01-16T13:46:19;7.32;74.93
72591;SHT31;60625;51.212;5.952;2023-01-16T13:51:21;7.27;75.29
72591;SHT31;60625;51.212;5.952;2023-01-16T13:56:24;7.21;75.81
72591;SHT31;60625;51.212;5.952;2023-01-16T14:06:32;7.12;76.99
72591;SHT31;60625;51.212;5.952;2023-01-16T14:12:20;7.08;77.07
72591;SHT31;60625;51.212;5.952;2023-01-16T14:17:29;7.04;77.18
72591;SHT31;60625;51.212;5.952;2023-01-16T14:22:52;7.01;77.36
72591;SHT31;60625;51.212;5.952;2023-01-16T14:28:15;6.99;77.99
72591;SHT31;60625;51.212;5.952;2023-01-16T14:33:17;6.95;78.54
72591;SHT31;60625;51.212;5.952;2023-01-16T14:38:20;6.93;79.00
72591;SHT31;60625;51.212;5.952;2023-01-16T14:43:26;6.88;79.47
72591;SHT31;60625;51.212;5.952;2023-01-16T14:48:48;6.78;79.72
72591;SHT31;60625;51.212;5.952;2023-01-16T15:05:13;6.44;80.64
72591;SHT31;60625;51.212;5.952;2023-01-16T15:10:23;6.37;80.99
72591;SHT31;60625;51.212;5.952;2023-01-16T15:15:36;6.31;81.23
72591;SHT31;60625;51.212;5.952;2023-01-16T15:20:37;6.26;81.44
72591;SHT31;60625;51.212;5.952;2023-01-16T15:31:08;6.20;81.60
72591;SHT31;60625;51.212;5.952;2023-01-16T15:36:42;6.16;81.69
72591;SHT31;60625;51.212;5.952;2023-01-16T15:41:46;6.14;81.76
72591;SHT31;60625;51.212;5.952;2023-01-16T15:52:52;6.12;81.87
72591;SHT31;60625;51.212;5.952;2023-01-16T15:57:57;6.11;81.89
72591;SHT31;60625;51.212;5.952;2023-01-16T16:03:04;6.10;81.88
72591;SHT31;60625;51.212;5.952;2023-01-16T16:08:23;6.11;82.02
72591;SHT31;60625;51.212;5.952;2023-01-16T16:13:26;6.12;82.07
72591;SHT31;60625;51.212;5.952;2023-01-16T16:18:27;6.12;81.92
72591;SHT31;60625;51.212;5.952;2023-01-16T16:23:29;6.12;82.00
72591;SHT31;60625;51.212;5.952;2023-01-16T16:28:33;6.12;82.07
72591;SHT31;60625;51.212;5.952;2023-01-16T16:33:40;6.10;81.96
72591;SHT31;60625;51.212;5.952;2023-01-16T16:38:57;6.08;82.02
72591;SHT31;60625;51.212;5.952;2023-01-16T16:43:59;6.07;82.08
72591;SHT31;60625;51.212;5.952;2023-01-16T16:54:28;6.04;82.04
72591;SHT31;60625;51.212;5.952;2023-01-16T16:59:28;6.02;82.10
72591;SHT31;60625;51.212;5.952;2023-01-16T17:04:33;6.03;82.21
72591;SHT31;60625;51.212;5.952;2023-01-16T17:09:35;6.02;82.14
72591;SHT31;60625;51.212;5.952;2023-01-16T17:14:35;6.01;82.25
72591;SHT31;60625;51.212;5.952;2023-01-16T17:19:36;6.00;82.19
72591;SHT31;60625;51.212;5.952;2023-01-16T17:24:37;5.99;82.21
72591;SHT31;60625;51.212;5.952;2023-01-16T17:29:38;5.98;82.22
72591;SHT31;60625;51.212;5.952;2023-01-16T17:34:45;5.97;82.32
72591;SHT31;60625;51.212;5.952;2023-01-16T17:39:45;5.95;82.31
72591;SHT31;60625;51.212;5.952;2023-01-16T17:44:46;5.94;82.21
72591;SHT31;60625;51.212;5.952;2023-01-16T17:50:06;5.94;82.34
72591;SHT31;60625;51.212;5.952;2023-01-16T17:55:22;5.95;82.38
72591;SHT31;60625;51.212;5.952;2023-01-16T18:00:43;5.94;82.46
72591;SHT31;60625;51.212;5.952;2023-01-16T18:05:44;5.93;82.89
72591;SHT31;60625;51.212;5.952;2023-01-16T18:10:44;5.92;83.33
72591;SHT31;60625;51.212;5.952;2023-01-16T18:15:45;5.89;83.82
72591;SHT31;60625;51.212;5.952;2023-01-16T18:21:08;5.83;84.25
72591;SHT31;60625;51.212;5.952;2023-01-16T18:26:32;5.78;84.56
72591;SHT31;60625;51.212;5.952;2023-01-16T18:31:32;5.66;84.25
72591;SHT31;60625;51.212;5.952;2023-01-16T18:36:33;5.35;83.40
72591;SHT31;60625;51.212;5.952;2023-01-16T18:41:33;5.14;83.82
72591;SHT31;60625;51.212;5.952;2023-01-16T18:46:53;5.00;84.14
72591;SHT31;60625;51.212;5.952;2023-01-16T18:52:16;4.92;84.48
72591;SHT31;60625;51.212;5.952;2023-01-16T18:57:37;4.86;84.72
72591;SHT31;60625;51.212;5.952;2023-01-16T19:02:56;4.83;85.02
72591;SHT31;60625;51.212;5.952;2023-01-16T19:07:57;4.82;85.31
72591;SHT31;60625;51.212;5.952;2023-01-16T19:12:57;4.81;85.78
72591;SHT31;60625;51.212;5.952;2023-01-16T19:18:00;4.79;86.14
72591;SHT31;60625;51.212;5.952;2023-01-16T19:23:01;4.81;86.45
72591;SHT31;60625;51.212;5.952;2023-01-16T19:28:02;4.82;86.50
72591;SHT31;60625;51.212;5.952;2023-01-16T19:33:03;4.84;86.27
72591;SHT31;60625;51.212;5.952;2023-01-16T19:38:03;4.87;86.01
72591;SHT31;60625;51.212;5.952;2023-01-16T19:43:04;4.90;85.86
72591;SHT31;60625;51.212;5.952;2023-01-16T19:48:23;4.91;85.89
72591;SHT31;60625;51.212;5.952;2023-01-16T19:53:23;4.91;85.86
72591;SHT31;60625;51.212;5.952;2023-01-16T19:58:24;4.90;85.58
72591;SHT31;60625;51.212;5.952;2023-01-16T20:03:25;4.88;85.31
72591;SHT31;60625;51.212;5.952;2023-01-16T20:08:25;4.88;85.08
72591;SHT31;60625;51.212;5.952;2023-01-16T20:13:25;4.86;85.00
72591;SHT31;60625;51.212;5.952;2023-01-16T20:18:26;4.84;84.97
72591;SHT31;60625;51.212;5.952;2023-01-16T20:23:30;4.84;84.99
72591;SHT31;60625;51.212;5.952;2023-01-16T20:28:32;4.84;85.01
72591;SHT31;60625;51.212;5.952;2023-01-16T20:33:36;4.84;85.05
72591;SHT31;60625;51.212;5.952;2023-01-16T20:38:37;4.86;85.07
72591;SHT31;60625;51.212;5.952;2023-01-16T20:43:41;4.85;85.11
72591;SHT31;60625;51.212;5.952;2023-01-16T20:49:00;4.84;85.04
72591;SHT31;60625;51.212;5.952;2023-01-16T20:54:01;4.83;84.94
72591;SHT31;60625;51.212;5.952;2023-01-16T20:59:08;4.83;85.02
72591;SHT31;60625;51.212;5.952;2023-01-16T21:04:09;4.81;84.96
72591;SHT31;60625;51.212;5.952;2023-01-16T21:09:10;4.80;85.00
72591;SHT31;60625;51.212;5.952;2023-01-16T21:14:13;4.79;84.83
72591;SHT31;60625;51.212;5.952;2023-01-16T21:19:14;4.77;84.61
72591;SHT31;60625;51.212;5.952;2023-01-16T21:24:35;4.75;84.59
72591;SHT31;60625;51.212;5.952;2023-01-16T21:29:38;4.74;84.58
72591;SHT31;60625;51.212;5.952;2023-01-16T21:34:38;4.72;84.47
72591;SHT31;60625;51.212;5.952;2023-01-16T21:39:40;4.68;84.51
72591;SHT31;60625;51.212;5.952;2023-01-16T21:44:41;4.65;84.58
72591;SHT31;60625;51.212;5.952;2023-01-16T21:50:00;4.61;84.59
72591;SHT31;60625;51.212;5.952;2023-01-16T21:55:01;4.58;84.57
72591;SHT31;60625;51.212;5.952;2023-01-16T22:00:03;4.57;84.62
72591;SHT31;60625;51.212;5.952;2023-01-16T22:05:09;4.54;84.72
72591;SHT31;60625;51.212;5.952;2023-01-16T22:10:11;4.53;84.89
72591;SHT31;60625;51.212;5.952;2023-01-16T22:15:12;4.54;84.96
72591;SHT31;60625;51.212;5.952;2023-01-16T22:20:31;4.54;85.12
72591;SHT31;60625;51.212;5.952;2023-01-16T22:25:40;4.54;85.24
72591;SHT31;60625;51.212;5.952;2023-01-16T22:30:41;4.53;85.29
72591;SHT31;60625;51.212;5.952;2023-01-16T22:35:44;4.53;85.34
72591;SHT31;60625;51.212;5.952;2023-01-16T22:40:58;4.52;85.44
72591;SHT31;60625;51.212;5.952;2023-01-16T22:46:00;4.50;85.64
72591;SHT31;60625;51.212;5.952;2023-01-16T22:51:19;4.49;85.69
72591;SHT31;60625;51.212;5.952;2023-01-16T22:56:20;4.44;85.67
72591;SHT31;60625;51.212;5.952;2023-01-16T23:01:21;4.33;85.13
72591;SHT31;60625;51.212;5.952;2023-01-16T23:06:24;4.17;84.85
72591;SHT31;60625;51.212;5.952;2023-01-16T23:16:32;3.94;85.51
72591;SHT31;60625;51.212;5.952;2023-01-16T23:21:35;3.92;85.68
72591;SHT31;60625;51.212;5.952;2023-01-16T23:26:36;3.94;85.94
72591;SHT31;60625;51.212;5.952;2023-01-16T23:31:37;3.96;86.17
72591;SHT31;60625;51.212;5.952;2023-01-16T23:36:40;3.96;86.35
72591;SHT31;60625;51.212;5.952;2023-01-16T23:41:41;4.01;86.50
72591;SHT31;60625;51.212;5.952;2023-01-16T23:52:14;4.12;86.39
72591;SHT31;60625;51.212;5.952;2023-01-16T23:57:27;4.13;86.39
